Time;durP1;ratioP1;P1;durP2;ratioP2;P2;SDS_P1;SDS_P2;PMS_P1;PMS_P2;Temp;Humidity;BMP_temperature;BMP_pressure;BME280_temperature;BME280_humidity;BME280_pressure;Samples;Min_cycle;Max_cycle;Signal;HPM_P1;HPM_P2
2021/07/17 00:01:09;;;;;;;3.00;2.20;;;19.10;99.90;19.20;96581.00;;;;5084128;28;20203;-65
2021/07/17 00:03:58;;;;;;;2.83;2.03;;;19.20;99.90;19.20;96591.00;;;;5084699;28;20213;-65
2021/07/17 00:06:51;;;;;;;2.20;2.07;;;19.20;99.90;19.40;96587.00;;;;5086352;28;20702;-65
2021/07/17 00:09:40;;;;;;;4.90;2.20;;;19.30;99.90;19.20;96584.00;;;;5088739;28;20233;-65
2021/07/17 00:12:29;;;;;;;2.57;1.70;;;19.30;99.90;19.30;96580.00;;;;5086660;28;22942;-65
2021/07/17 00:15:23;;;;;;;1.80;1.70;;;19.40;99.90;19.30;96582.00;;;;5087872;28;20198;-65
2021/07/17 00:18:15;;;;;;;2.20;2.00;;;19.40;99.90;19.50;96583.00;;;;5087312;28;20227;-65
2021/07/17 00:21:04;;;;;;;2.00;1.90;;;19.40;99.90;20.00;96581.00;;;;5085729;28;20245;-65
2021/07/17 00:23:54;;;;;;;2.70;2.50;;;19.60;99.90;19.90;96565.00;;;;5086086;28;20191;-65
2021/07/17 00:26:43;;;;;;;1.73;1.63;;;19.70;99.90;20.10;96569.00;;;;5086824;28;20252;-65
2021/07/17 00:29:32;;;;;;;2.40;2.20;;;19.90;99.90;20.10;96572.00;;;;5086974;28;20199;-66
2021/07/17 00:32:21;;;;;;;2.00;1.90;;;20.00;99.90;20.20;96559.00;;;;5088596;28;20222;-65
2021/07/17 00:35:11;;;;;;;1.93;1.83;;;20.50;99.90;20.20;96549.00;;;;5086151;28;22507;-65
2021/07/17 00:38:00;;;;;;;3.37;1.93;;;20.10;99.90;20.30;96548.00;;;;5085617;28;20238;-65
2021/07/17 00:40:50;;;;;;;2.03;1.93;;;20.20;99.90;20.30;96551.00;;;;5084401;28;20202;-65
2021/07/17 00:43:39;;;;;;;2.60;2.20;;;20.30;99.90;20.40;96547.00;;;;5086703;28;20214;-65
2021/07/17 00:46:29;;;;;;;2.47;2.27;;;20.30;99.90;20.60;96543.00;;;;5085428;28;20199;-65
2021/07/17 00:49:21;;;;;;;2.10;2.00;;;20.40;99.90;20.50;96543.00;;;;5085005;28;20207;-65
2021/07/17 00:52:10;;;;;;;1.97;1.83;;;20.50;99.90;20.50;96534.00;;;;5086359;28;20231;-65
2021/07/17 00:55:00;;;;;;;2.93;1.83;;;20.60;99.90;20.30;96537.00;;;;5087955;28;20214;-66
2021/07/17 00:57:53;;;;;;;2.90;1.70;;;20.80;99.90;20.20;96536.00;;;;5066186;28;20288;-65
2021/07/17 01:00:43;;;;;;;2.37;2.17;;;20.50;99.90;20.20;96532.00;;;;5064119;28;20205;-65
2021/07/17 01:03:32;;;;;;;2.70;2.50;;;20.40;99.90;20.30;96540.00;;;;5086035;28;20287;-66
2021/07/17 01:06:22;;;;;;;2.97;2.03;;;20.40;99.90;20.30;96527.00;;;;5085464;28;20208;-66
2021/07/17 01:09:11;;;;;;;2.27;2.10;;;20.40;99.90;20.20;96535.00;;;;5084613;28;20203;-65
2021/07/17 01:12:00;;;;;;;2.37;2.17;;;20.40;99.90;20.20;96545.00;;;;5083538;28;20229;-66
2021/07/17 01:14:51;;;;;;;3.63;1.87;;;20.30;99.90;20.20;96538.00;;;;5085026;28;20207;-65
2021/07/17 01:17:40;;;;;;;2.20;1.80;;;20.30;99.90;20.20;96540.00;;;;5080577;27;20264;-66
2021/07/17 01:20:29;;;;;;;2.40;2.20;;;20.30;99.90;20.20;96531.00;;;;5085442;28;20307;-66
2021/07/17 01:23:21;;;;;;;2.20;2.10;;;20.30;99.90;20.10;96537.00;;;;5084305;28;20226;-66
2021/07/17 01:26:10;;;;;;;1.90;1.80;;;20.30;99.90;20.30;96527.00;;;;5085486;28;20203;-66
2021/07/17 01:28:59;;;;;;;3.77;1.93;;;20.40;99.90;20.50;96536.00;;;;5085379;28;20196;-65
2021/07/17 01:31:49;;;;;;;1.67;1.57;;;20.30;99.90;20.50;96540.00;;;;5084522;28;20233;-66
2021/07/17 01:34:38;;;;;;;1.53;1.43;;;20.40;99.90;20.70;96545.00;;;;5084422;28;20711;-65
2021/07/17 01:37:27;;;;;;;1.77;1.67;;;20.50;99.90;20.60;96539.00;;;;5086408;28;20227;-65
2021/07/17 01:40:21;;;;;;;3.07;1.93;;;20.60;99.90;20.60;96546.00;;;;5083732;28;20742;-65
2021/07/17 01:43:11;;;;;;;3.00;1.90;;;20.60;99.90;20.70;96540.00;;;;5083867;28;20276;-65
2021/07/17 01:46:02;;;;;;;2.67;2.47;;;20.70;99.90;20.60;96537.00;;;;5083832;28;20214;-64
2021/07/17 01:48:52;;;;;;;2.93;2.00;;;20.60;99.90;20.50;96535.00;;;;5086078;28;20198;-64
2021/07/17 01:51:41;;;;;;;2.33;2.13;;;20.60;99.90;20.50;96538.00;;;;5085120;28;20223;-64
2021/07/17 01:54:33;;;;;;;2.13;1.90;;;20.60;99.90;20.50;96537.00;;;;5085131;28;20202;-65
2021/07/17 01:57:24;;;;;;;2.23;2.03;;;20.60;99.90;20.50;96533.00;;;;5082989;28;20226;-65
2021/07/17 02:00:14;;;;;;;2.40;1.90;;;20.60;99.90;20.40;96528.00;;;;5081922;28;20741;-65
2021/07/17 02:03:04;;;;;;;3.20;2.20;;;20.60;99.90;20.30;96523.00;;;;5090128;28;20234;-65
2021/07/17 02:05:53;;;;;;;1.90;1.70;;;20.50;99.90;20.30;96508.00;;;;5086077;28;20203;-65
2021/07/17 02:08:42;;;;;;;4.80;2.20;;;20.50;99.90;20.30;96502.00;;;;5082879;28;20195;-65
2021/07/17 02:11:31;;;;;;;2.23;2.03;;;20.40;99.90;20.30;96503.00;;;;5066095;28;20200;-65
2021/07/17 02:14:22;;;;;;;2.50;2.27;;;20.40;99.90;20.50;96503.00;;;;5083986;28;20203;-65
2021/07/17 02:17:11;;;;;;;2.00;1.90;;;20.40;99.90;20.60;96487.00;;;;5086830;28;20214;-65
2021/07/17 02:20:00;;;;;;;4.57;1.97;;;20.50;99.90;20.50;96487.00;;;;5083830;28;20215;-65
2021/07/17 02:22:50;;;;;;;3.10;2.30;;;20.50;99.90;20.50;96483.00;;;;5083208;28;20276;-65
2021/07/17 02:25:39;;;;;;;3.17;2.33;;;20.60;99.90;20.40;96478.00;;;;5087579;28;20202;-65
2021/07/17 02:28:28;;;;;;;1.83;1.67;;;20.60;99.90;20.40;96473.00;;;;5063824;28;20656;-65
2021/07/17 02:31:18;;;;;;;2.87;2.67;;;20.50;99.90;20.30;96462.00;;;;5082718;28;20337;-65
2021/07/17 02:34:08;;;;;;;5.93;1.73;;;20.50;99.90;20.30;96471.00;;;;5084087;28;20255;-65
2021/07/17 02:36:56;;;;;;;3.80;2.20;;;20.40;99.90;20.20;96464.00;;;;5083203;28;20206;-65
2021/07/17 02:39:45;;;;;;;2.30;2.10;;;20.40;99.90;20.20;96466.00;;;;5084461;28;20215;-65
2021/07/17 02:42:36;;;;;;;4.87;2.43;;;20.40;99.90;20.20;96462.00;;;;5084581;28;20372;-65
2021/07/17 02:45:25;;;;;;;2.37;2.17;;;20.30;99.90;20.20;96462.00;;;;5084022;28;20688;-65
2021/07/17 02:48:16;;;;;;;2.10;2.00;;;20.30;99.90;20.30;96475.00;;;;5086449;28;20220;-65
2021/07/17 02:51:05;;;;;;;4.60;2.80;;;20.30;99.90;20.50;96467.00;;;;5066501;28;20589;-64
2021/07/17 02:53:54;;;;;;;4.63;2.70;;;20.40;99.90;20.70;96473.00;;;;5064579;28;20260;-64
2021/07/17 02:56:43;;;;;;;3.07;2.47;;;20.50;99.90;20.70;96469.00;;;;5063050;28;20203;-64
2021/07/17 02:59:32;;;;;;;2.97;2.77;;;20.60;99.90;20.70;96472.00;;;;5063283;28;20232;-66
2021/07/17 03:02:21;;;;;;;2.63;2.43;;;20.70;99.90;20.80;96461.00;;;;5063864;28;20238;-66
2021/07/17 03:05:13;;;;;;;6.27;2.73;;;20.70;99.90;20.70;96460.00;;;;5063345;28;20926;-66
2021/07/17 03:08:03;;;;;;;3.60;2.60;;;20.80;99.90;20.90;96461.00;;;;5063370;28;20287;-64
2021/07/17 03:10:53;;;;;;;4.87;4.07;;;20.80;99.90;20.90;96471.00;;;;5080553;28;20206;-66
2021/07/17 03:13:42;;;;;;;3.13;2.90;;;20.80;99.90;20.80;96462.00;;;;5083551;28;20218;-66
2021/07/17 03:16:32;;;;;;;3.57;3.20;;;20.90;99.90;20.80;96474.00;;;;5084634;28;22250;-65
2021/07/17 03:19:20;;;;;;;4.10;3.23;;;20.90;99.90;21.10;96469.00;;;;5081742;28;20233;-66
2021/07/17 03:22:13;;;;;;;3.53;3.23;;;20.90;99.90;21.20;96476.00;;;;5084581;28;20230;-66
2021/07/17 03:25:02;;;;;;;2.73;2.53;;;21.10;99.90;21.30;96471.00;;;;5064925;28;20199;-67
2021/07/17 03:27:51;;;;;;;4.60;2.70;;;21.20;99.90;21.30;96459.00;;;;5081229;28;20203;-66
2021/07/17 03:30:40;;;;;;;5.37;3.53;;;21.20;99.90;21.30;96463.00;;;;5083075;28;20255;-66
2021/07/17 03:33:30;;;;;;;3.03;2.83;;;21.20;99.90;21.40;96438.00;;;;5082107;28;20218;-66
2021/07/17 03:36:19;;;;;;;4.73;3.30;;;21.30;99.90;21.50;96446.00;;;;5084296;28;20202;-66
2021/07/17 03:39:09;;;;;;;4.40;4.00;;;21.40;99.90;21.70;96446.00;;;;5085026;28;20604;-67
2021/07/17 03:41:58;;;;;;;6.37;3.73;;;21.50;99.90;21.70;96449.00;;;;5082492;28;20286;-68
2021/07/17 03:44:48;;;;;;;8.10;6.60;;;21.60;99.90;21.80;96449.00;;;;5083032;28;21070;-68
2021/07/17 03:47:37;;;;;;;4.03;3.73;;;21.70;99.90;22.00;96440.00;;;;5082500;28;20195;-68
2021/07/17 03:50:26;;;;;;;6.37;4.30;;;21.80;99.90;21.90;96442.00;;;;5084214;28;20228;-66
2021/07/17 03:53:14;;;;;;;4.87;4.47;;;21.90;99.90;21.90;96447.00;;;;5087591;28;20585;-66
2021/07/17 03:56:06;;;;;;;5.73;4.23;;;21.90;99.90;21.80;96449.00;;;;5056082;28;20389;-67
2021/07/17 03:58:55;;;;;;;5.13;4.00;;;21.90;99.90;21.80;96453.00;;;;5083112;28;20280;-67
2021/07/17 04:01:46;;;;;;;4.30;3.90;;;21.90;99.90;21.80;96463.00;;;;5086239;28;20222;-67
2021/07/17 04:04:40;;;;;;;6.30;4.73;;;21.80;99.90;21.80;96457.00;;;;5084513;28;20203;-67
2021/07/17 04:07:29;;;;;;;5.03;4.57;;;21.80;99.90;21.80;96464.00;;;;5081941;28;20214;-66
2021/07/17 04:10:18;;;;;;;6.70;4.87;;;21.90;99.90;21.90;96458.00;;;;5083457;28;20231;-66
2021/07/17 04:13:08;;;;;;;5.70;5.10;;;21.90;99.90;22.00;96484.00;;;;5089158;28;20227;-66
2021/07/17 04:15:57;;;;;;;6.37;4.27;;;21.90;99.90;22.00;96502.00;;;;5088901;28;21893;-66
2021/07/17 04:18:46;;;;;;;5.30;4.57;;;21.90;99.90;22.00;96520.00;;;;5063451;28;20896;-65
2021/07/17 04:21:35;;;;;;;5.23;4.70;;;22.00;99.90;22.00;96541.00;;;;5063605;28;20902;-66
2021/07/17 04:24:24;;;;;;;5.30;4.80;;;22.00;99.90;22.00;96538.00;;;;5065026;28;20208;-66
2021/07/17 04:27:14;;;;;;;6.90;4.37;;;22.00;99.90;22.00;96539.00;;;;5086737;28;20234;-66
2021/07/17 04:30:06;;;;;;;6.60;5.00;;;22.00;99.90;21.90;96555.00;;;;5087871;28;20204;-66
2021/07/17 04:32:54;;;;;;;6.17;4.97;;;22.00;99.90;21.70;96557.00;;;;5084880;28;20226;-66
2021/07/17 04:35:43;;;;;;;8.20;7.13;;;21.90;99.90;21.50;96558.00;;;;5087876;28;20207;-66
2021/07/17 04:38:32;;;;;;;8.50;6.30;;;21.90;99.90;21.20;96558.00;;;;5086818;28;20236;-66
2021/07/17 04:41:21;;;;;;;6.70;6.00;;;21.70;99.90;20.80;96556.00;;;;5084465;28;20202;-67
2021/07/17 04:44:10;;;;;;;10.30;6.20;;;21.50;99.90;20.40;96557.00;;;;5083699;28;20675;-68
2021/07/17 04:47:01;;;;;;;8.13;6.03;;;21.20;99.90;19.90;96568.00;;;;5083204;28;20230;-68
2021/07/17 04:49:49;;;;;;;7.60;6.80;;;20.90;99.90;19.70;96571.00;;;;5083017;28;20253;-66
2021/07/17 04:52:38;;;;;;;8.17;6.47;;;20.60;99.90;19.50;96588.00;;;;5084740;28;20226;-68
2021/07/17 04:55:28;;;;;;;8.23;7.43;;;20.30;99.90;19.40;96594.00;;;;5085350;28;20733;-65
2021/07/17 04:58:18;;;;;;;8.83;7.77;;;20.10;99.90;19.30;96606.00;;;;5089104;28;20203;-65
2021/07/17 05:01:07;;;;;;;7.90;7.10;;;19.90;99.90;19.20;96609.00;;;;5085387;28;20206;-65
2021/07/17 05:03:57;;;;;;;11.40;8.73;;;19.80;99.90;19.00;96621.00;;;;5088414;28;20199;-66
2021/07/17 05:06:46;;;;;;;9.17;8.27;;;19.70;99.90;19.10;96628.00;;;;5084034;28;20203;-65
2021/07/17 05:09:35;;;;;;;12.00;7.73;;;19.50;99.90;19.00;96632.00;;;;5084598;28;20706;-66
2021/07/17 05:12:24;;;;;;;9.07;7.17;;;19.50;99.90;19.00;96623.00;;;;5085645;28;20229;-64
2021/07/17 05:15:15;;;;;;;12.63;8.53;;;19.40;99.90;18.80;96626.00;;;;5088099;28;20199;-66
2021/07/17 05:18:05;;;;;;;13.20;8.50;;;19.40;99.90;18.70;96630.00;;;;5086359;28;20748;-65
2021/07/17 05:20:55;;;;;;;10.63;9.30;;;19.20;99.90;18.80;96644.00;;;;5085964;28;20226;-65
2021/07/17 05:23:44;;;;;;;11.87;9.43;;;19.20;99.90;18.80;96639.00;;;;5088004;28;20661;-65
2021/07/17 05:26:33;;;;;;;12.77;8.87;;;19.20;99.90;18.80;96636.00;;;;5085727;28;20963;-65
2021/07/17 05:29:22;;;;;;;12.63;8.33;;;19.10;99.90;18.70;96646.00;;;;5086170;28;20691;-66
2021/07/17 05:32:11;;;;;;;15.67;10.20;;;19.10;99.90;18.40;96641.00;;;;5084852;28;20721;-68
2021/07/17 05:35:01;;;;;;;12.17;9.57;;;19.00;99.90;18.20;96628.00;;;;5084606;28;20235;-66
2021/07/17 05:37:51;;;;;;;12.10;9.37;;;18.90;99.90;18.00;96606.00;;;;5084789;28;20339;-65
2021/07/17 05:40:40;;;;;;;12.17;10.87;;;18.80;99.90;18.00;96614.00;;;;5085781;28;20228;-69
2021/07/17 05:43:29;;;;;;;11.40;9.20;;;18.70;99.90;18.20;96610.00;;;;5087301;28;20506;-66
2021/07/17 05:46:18;;;;;;;11.37;10.13;;;18.60;99.90;18.10;96602.00;;;;5086250;28;20210;-66
2021/07/17 05:49:07;;;;;;;13.73;10.37;;;18.60;99.90;18.20;96606.00;;;;5085475;28;20258;-66
2021/07/17 05:51:56;;;;;;;12.57;10.27;;;18.50;99.90;18.40;96614.00;;;;5083398;28;20971;-66
2021/07/17 05:54:46;;;;;;;12.67;11.10;;;18.50;99.90;18.50;96617.00;;;;5086435;28;20209;-65
2021/07/17 05:57:35;;;;;;;11.20;9.93;;;18.60;99.90;18.50;96619.00;;;;5086556;28;20203;-65
2021/07/17 06:00:24;;;;;;;12.27;10.53;;;18.60;99.90;18.50;96625.00;;;;5081226;28;20224;-66
2021/07/17 06:03:13;;;;;;;13.10;10.10;;;18.70;99.90;18.30;96630.00;;;;5083614;28;20599;-65
2021/07/17 06:06:02;;;;;;;12.77;11.50;;;18.60;99.90;18.40;96635.00;;;;5085822;28;20220;-66
2021/07/17 06:08:51;;;;;;;16.37;11.27;;;18.60;99.90;18.50;96641.00;;;;5086813;28;20203;-65
2021/07/17 06:11:41;;;;;;;13.67;10.50;;;18.60;99.90;18.40;96637.00;;;;5085025;28;20204;-65
2021/07/17 06:14:30;;;;;;;13.20;11.73;;;18.70;99.90;18.40;96644.00;;;;5082851;28;20299;-66
2021/07/17 06:17:19;;;;;;;15.60;11.87;;;18.70;99.90;18.30;96638.00;;;;5086767;28;20255;-66
2021/07/17 06:20:10;;;;;;;11.87;9.87;;;18.70;99.90;18.30;96631.00;;;;5084148;28;20287;-66
2021/07/17 06:22:59;;;;;;;12.67;10.47;;;18.60;99.90;18.30;96633.00;;;;5082874;28;21137;-66
2021/07/17 06:25:47;;;;;;;11.47;9.40;;;18.60;99.90;18.30;96641.00;;;;5084883;28;20685;-66
2021/07/17 06:28:39;;;;;;;18.33;11.27;;;18.60;99.90;18.30;96630.00;;;;5085815;28;20212;-66
2021/07/17 06:31:28;;;;;;;14.87;11.20;;;18.60;99.90;18.40;96643.00;;;;5086625;28;20195;-66
2021/07/17 06:34:17;;;;;;;11.60;10.30;;;18.60;99.90;18.40;96648.00;;;;5083562;28;20263;-66
2021/07/17 06:37:06;;;;;;;15.70;12.20;;;18.60;99.90;18.60;96663.00;;;;5080752;28;20324;-66
2021/07/17 06:39:55;;;;;;;12.00;10.83;;;18.70;99.90;18.80;96672.00;;;;5082243;28;20782;-66
2021/07/17 06:42:45;;;;;;;12.87;10.20;;;18.80;99.90;18.80;96685.00;;;;5086123;28;20218;-66
2021/07/17 06:45:35;;;;;;;12.57;10.90;;;18.80;99.90;18.80;96685.00;;;;5083861;28;20203;-66
2021/07/17 06:48:24;;;;;;;11.60;10.47;;;18.80;99.90;18.70;96687.00;;;;5079981;28;20210;-66
2021/07/17 06:51:13;;;;;;;13.70;10.77;;;18.80;99.90;18.80;96687.00;;;;5082207;28;20700;-66
2021/07/17 06:54:03;;;;;;;14.07;10.10;;;18.90;99.90;18.70;96694.00;;;;5086939;28;20214;-66
2021/07/17 06:56:52;;;;;;;11.00;9.90;;;18.90;99.90;18.80;96695.00;;;;5084152;28;20207;-66
2021/07/17 06:59:41;;;;;;;10.97;8.93;;;18.90;99.90;18.80;96704.00;;;;5083485;28;20200;-66
2021/07/17 07:02:31;;;;;;;11.37;10.27;;;19.00;99.90;18.80;96695.00;;;;5084704;28;20294;-66
2021/07/17 07:05:21;;;;;;;12.90;9.93;;;19.00;99.90;18.40;96687.00;;;;5082752;28;20207;-66
2021/07/17 07:08:10;;;;;;;14.23;11.27;;;18.90;99.90;18.50;96692.00;;;;5065783;28;20306;-66
2021/07/17 07:10:58;;;;;;;11.60;10.47;;;18.90;99.90;18.70;96697.00;;;;5083119;28;20199;-66
2021/07/17 07:13:47;;;;;;;11.87;10.47;;;18.90;99.90;18.90;96686.00;;;;5082311;28;20218;-66
2021/07/17 07:16:36;;;;;;;10.17;9.03;;;18.90;99.90;18.80;96681.00;;;;5084050;28;20747;-66
2021/07/17 07:19:27;;;;;;;10.37;8.23;;;19.00;99.90;19.00;96683.00;;;;5083916;28;20211;-65
2021/07/17 07:22:16;;;;;;;10.27;8.17;;;19.00;99.90;19.10;96682.00;;;;5081113;28;20226;-65
2021/07/17 07:25:07;;;;;;;7.97;7.23;;;19.10;99.90;19.20;96686.00;;;;5063691;28;20679;-67
2021/07/17 07:27:56;;;;;;;11.50;6.80;;;19.20;99.90;19.20;96675.00;;;;5083150;28;20199;-66
2021/07/17 07:30:45;;;;;;;7.40;6.70;;;19.20;99.90;19.20;96671.00;;;;5074851;28;20199;-66
2021/07/17 07:33:34;;;;;;;8.37;7.57;;;19.30;99.90;19.30;96665.00;;;;5084083;28;20697;-67
2021/07/17 07:36:24;;;;;;;8.37;7.57;;;19.30;99.90;19.40;96668.00;;;;5061532;28;20897;-67
2021/07/17 07:39:13;;;;;;;8.43;7.63;;;19.40;99.90;19.30;96667.00;;;;5082665;28;20211;-66
2021/07/17 07:42:02;;;;;;;8.17;6.83;;;19.40;99.90;19.60;96669.00;;;;5083421;28;20230;-66
2021/07/17 07:44:51;;;;;;;10.73;7.17;;;19.60;99.90;19.80;96665.00;;;;5082941;28;20198;-66
2021/07/17 07:47:40;;;;;;;11.20;6.83;;;19.70;99.90;20.00;96662.00;;;;5085081;28;20255;-67
2021/07/17 07:50:29;;;;;;;10.30;8.03;;;19.80;99.90;20.00;96667.00;;;;5081528;28;20392;-66
2021/07/17 07:53:20;;;;;;;7.27;6.57;;;19.90;99.90;20.10;96671.00;;;;5081636;28;20697;-66
2021/07/17 07:56:09;;;;;;;8.20;6.90;;;20.00;99.90;20.20;96672.00;;;;5087077;28;20198;-66
2021/07/17 07:58:58;;;;;;;7.43;6.00;;;20.10;99.90;19.90;96679.00;;;;5083857;28;20641;-64
2021/07/17 08:01:46;;;;;;;7.80;6.73;;;20.10;99.90;19.90;96673.00;;;;5086235;28;20223;-67
2021/07/17 08:04:35;;;;;;;8.67;6.63;;;20.10;99.90;19.60;96665.00;;;;5085112;28;20658;-67
2021/07/17 08:07:25;;;;;;;7.77;6.97;;;20.00;99.90;19.80;96674.00;;;;5063564;28;20694;-67
2021/07/17 08:10:16;;;;;;;9.80;6.93;;;19.90;99.90;19.60;96672.00;;;;5066351;28;20558;-66
2021/07/17 08:13:05;;;;;;;7.43;6.63;;;20.00;99.90;19.70;96672.00;;;;5087247;28;20721;-66
2021/07/17 08:15:57;;;;;;;6.00;5.40;;;19.90;99.90;19.60;96681.00;;;;5086183;28;20685;-67
2021/07/17 08:18:46;;;;;;;7.60;5.27;;;19.90;99.90;19.70;96678.00;;;;5064872;28;20233;-66
2021/07/17 08:21:35;;;;;;;6.40;5.27;;;19.90;99.90;19.60;96689.00;;;;5087107;28;20685;-65
2021/07/17 08:24:24;;;;;;;6.67;5.23;;;19.90;99.90;19.70;96679.00;;;;5088960;28;20341;-65
2021/07/17 08:27:14;;;;;;;6.73;5.40;;;19.90;99.90;19.70;96695.00;;;;5082345;28;20716;-66
2021/07/17 08:30:04;;;;;;;4.60;4.20;;;19.80;99.90;19.80;96690.00;;;;5067249;28;20722;-67
2021/07/17 08:32:53;;;;;;;5.30;4.80;;;19.90;99.90;19.60;96687.00;;;;5066728;28;20417;-66
2021/07/17 08:35:42;;;;;;;4.03;3.70;;;19.90;99.90;19.20;96676.00;;;;5067503;28;20574;-67
2021/07/17 08:38:31;;;;;;;3.27;2.97;;;19.80;99.90;19.40;96686.00;;;;5066445;28;20203;-66
2021/07/17 08:41:29;;;;;;;4.67;3.47;;;19.70;99.90;19.70;96683.00;;;;5065120;28;20223;-66
2021/07/17 08:44:20;;;;;;;3.30;3.00;;;19.80;99.90;20.00;96691.00;;;;5067310;28;20253;-66
2021/07/17 08:47:10;;;;;;;3.70;3.30;;;19.90;99.90;20.10;96690.00;;;;5062810;28;20196;-68
2021/07/17 08:50:01;;;;;;;3.33;3.03;;;19.90;99.90;20.20;96686.00;;;;5064650;28;20250;-66
2021/07/17 08:52:51;;;;;;;4.13;3.73;;;20.10;99.90;20.30;96690.00;;;;5068027;28;20264;-67
2021/07/17 08:55:41;;;;;;;4.47;3.20;;;20.20;99.90;20.40;96679.00;;;;5083078;28;20710;-66
2021/07/17 08:58:29;;;;;;;3.40;3.10;;;20.30;99.90;20.50;96682.00;;;;5089279;28;20210;-65
2021/07/17 09:01:20;;;;;;;3.90;3.07;;;20.30;99.90;20.70;96681.00;;;;5085325;28;20222;-65
2021/07/17 09:04:09;;;;;;;5.37;3.20;;;20.40;99.90;20.70;96683.00;;;;5086146;28;20198;-67
2021/07/17 09:06:58;;;;;;;3.33;3.03;;;20.60;99.90;20.90;96687.00;;;;5085921;28;20742;-65
2021/07/17 09:09:46;;;;;;;3.97;2.93;;;20.60;99.90;21.00;96682.00;;;;5085621;28;20560;-66
2021/07/17 09:12:35;;;;;;;4.30;2.80;;;20.80;99.90;21.30;96692.00;;;;5085483;28;20218;-65
2021/07/17 09:15:24;;;;;;;4.07;2.90;;;20.90;99.90;21.40;96693.00;;;;5083912;28;20674;-65
2021/07/17 09:18:15;;;;;;;2.97;2.73;;;21.10;99.90;21.30;96696.00;;;;5082744;28;20587;-66
2021/07/17 09:21:14;;;;;;;3.90;2.90;;;21.20;99.90;21.20;96696.00;;;;5084851;28;20249;-66
2021/07/17 09:24:06;;;;;;;3.50;3.20;;;21.20;99.90;21.30;96706.00;;;;5064948;28;20268;-66
2021/07/17 09:26:59;;;;;;;3.43;3.13;;;21.30;99.90;21.30;96707.00;;;;5062988;28;20982;-66
2021/07/17 09:29:49;;;;;;;4.90;3.57;;;21.30;99.90;21.40;96707.00;;;;5064395;28;20200;-66
2021/07/17 09:32:38;;;;;;;4.40;3.30;;;21.30;99.90;21.30;96706.00;;;;5065146;28;20321;-65
2021/07/17 09:35:28;;;;;;;3.20;2.90;;;21.30;99.90;21.20;96696.00;;;;5065888;28;20210;-65
2021/07/17 09:38:20;;;;;;;2.43;2.23;;;21.30;99.90;21.20;96706.00;;;;5065837;28;20203;-65
2021/07/17 09:41:09;;;;;;;3.07;2.77;;;21.30;99.90;20.90;96717.00;;;;5063696;28;20776;-65
2021/07/17 09:44:04;;;;;;;3.03;2.73;;;21.20;99.90;20.60;96719.00;;;;5067283;28;20211;-63
2021/07/17 09:46:53;;;;;;;8.90;3.40;;;21.00;99.90;20.70;96715.00;;;;5066976;28;20731;-64
2021/07/17 09:49:42;;;;;;;2.97;2.67;;;20.90;99.90;20.60;96716.00;;;;5066500;28;20422;-67
2021/07/17 09:52:42;;;;;;;4.40;2.70;;;20.80;99.90;20.20;96713.00;;;;5064971;28;20216;-67
2021/07/17 09:55:31;;;;;;;3.30;2.57;;;20.70;99.90;20.30;96712.00;;;;5065721;28;20257;-67
2021/07/17 09:58:20;;;;;;;2.97;2.53;;;20.60;99.90;20.40;96721.00;;;;5084677;28;20685;-67
2021/07/17 10:01:27;;;;;;;3.73;2.63;;;20.50;99.90;20.30;96722.00;;;;5085220;28;20205;-67
2021/07/17 10:04:17;;;;;;;3.70;3.30;;;20.50;99.90;20.30;96721.00;;;;5086018;28;20223;-67
2021/07/17 10:07:09;;;;;;;3.70;3.17;;;20.40;99.90;20.10;96723.00;;;;5085451;28;20230;-67
2021/07/17 10:10:00;;;;;;;3.20;2.90;;;20.40;99.90;20.10;96729.00;;;;5084696;28;20267;-67
2021/07/17 10:12:49;;;;;;;4.40;3.77;;;20.30;99.90;20.10;96723.00;;;;5083735;28;20591;-67
2021/07/17 10:15:38;;;;;;;3.40;3.00;;;20.30;99.90;19.90;96732.00;;;;5065546;28;20573;-68
2021/07/17 10:18:28;;;;;;;4.67;3.30;;;20.20;99.90;19.80;96728.00;;;;5083622;28;20578;-65
2021/07/17 10:21:18;;;;;;;4.27;3.57;;;20.10;99.90;19.80;96723.00;;;;5084264;28;20249;-66
2021/07/17 10:24:07;;;;;;;3.37;2.90;;;20.00;99.90;19.70;96730.00;;;;5083802;28;20248;-67
2021/07/17 10:26:59;;;;;;;3.90;2.60;;;20.00;99.90;19.80;96728.00;;;;5083957;28;20677;-66
2021/07/17 10:29:48;;;;;;;4.20;2.97;;;19.90;99.90;19.70;96717.00;;;;5084162;28;20198;-66
2021/07/17 10:32:37;;;;;;;3.57;2.80;;;19.90;99.90;19.70;96717.00;;;;5086546;28;20701;-65
2021/07/17 10:35:26;;;;;;;4.20;3.27;;;19.90;99.90;19.70;96722.00;;;;5083857;28;21969;-67
2021/07/17 10:38:16;;;;;;;4.47;3.73;;;19.90;99.90;19.80;96722.00;;;;5087340;28;20199;-67
2021/07/17 10:41:05;;;;;;;6.60;3.87;;;19.90;99.90;20.00;96727.00;;;;5087385;28;20446;-67
2021/07/17 10:43:56;;;;;;;3.80;3.43;;;19.90;99.90;20.10;96718.00;;;;5083068;28;20735;-68
2021/07/17 10:46:45;;;;;;;3.60;3.07;;;20.00;99.90;20.20;96718.00;;;;5064334;28;20211;-68
2021/07/17 10:49:37;;;;;;;2.70;2.50;;;20.80;99.90;20.00;96720.00;;;;5063788;28;20755;-68
2021/07/17 10:52:40;;;;;;;3.90;2.67;;;20.10;99.90;19.90;96725.00;;;;5065069;28;20219;-68
2021/07/17 10:55:32;;;;;;;4.73;2.20;;;20.10;99.90;20.00;96724.00;;;;5062057;28;20355;-67
2021/07/17 10:58:38;;;;;;;5.43;3.00;;;20.10;99.90;20.10;96733.00;;;;5064669;28;20195;-67
2021/07/17 11:02:07;;;;;;;3.43;3.13;;;20.10;99.90;20.10;96743.00;;;;5062322;28;20626;-67
2021/07/17 11:05:02;;;;;;;2.63;2.43;;;20.20;99.90;19.90;96723.00;;;;5062701;28;20237;-69
2021/07/17 11:07:52;;;;;;;3.50;3.10;;;20.10;99.90;19.80;96712.00;;;;5062799;28;20238;-68
2021/07/17 11:10:43;;;;;;;4.33;3.10;;;20.10;99.90;19.80;96718.00;;;;5061802;28;20207;-67
2021/07/17 11:13:34;;;;;;;4.00;3.27;;;20.00;99.90;19.70;96713.00;;;;5064840;28;20242;-66
2021/07/17 11:16:43;;;;;;;3.57;2.43;;;19.90;99.90;19.60;96716.00;;;;5085386;28;20218;-66
2021/07/17 11:19:32;;;;;;;6.07;2.50;;;19.90;99.90;19.70;96710.00;;;;5064700;28;20226;-68
2021/07/17 11:22:21;;;;;;;2.80;2.43;;;19.90;99.90;19.80;96707.00;;;;5068839;28;20223;-66
2021/07/17 11:25:13;;;;;;;5.57;3.07;;;19.90;99.90;20.00;96707.00;;;;5080361;28;20286;-67
2021/07/17 11:28:02;;;;;;;5.20;3.03;;;19.90;99.90;19.90;96699.00;;;;5085328;28;20338;-68
2021/07/17 11:30:51;;;;;;;4.30;2.53;;;20.00;99.90;19.90;96708.00;;;;5084076;28;20662;-66
2021/07/17 11:33:41;;;;;;;3.60;2.80;;;20.10;99.90;20.00;96714.00;;;;5086102;28;20642;-68
2021/07/17 11:36:30;;;;;;;3.93;3.13;;;20.10;99.90;19.90;96714.00;;;;5086244;28;20290;-66
2021/07/17 11:39:22;;;;;;;2.93;2.73;;;20.00;99.90;19.80;96716.00;;;;5085237;28;20356;-66
2021/07/17 11:42:16;;;;;;;3.23;2.93;;;20.00;99.90;19.70;96727.00;;;;5086843;28;20226;-68
2021/07/17 11:45:07;;;;;;;4.90;2.87;;;19.90;99.90;19.70;96716.00;;;;5086533;28;20199;-66
2021/07/17 11:47:56;;;;;;;3.33;2.53;;;19.90;99.90;19.40;96723.00;;;;5084948;28;20612;-66
2021/07/17 11:50:46;;;;;;;3.50;2.97;;;19.80;99.90;19.20;96722.00;;;;5057259;28;20210;-68
2021/07/17 11:53:35;;;;;;;7.10;3.30;;;19.60;99.90;19.10;96729.00;;;;5067811;28;20288;-68
2021/07/17 11:56:24;;;;;;;4.37;3.23;;;19.50;99.90;19.00;96735.00;;;;5060204;28;20252;-68
2021/07/17 11:59:14;;;;;;;6.30;3.60;;;19.30;99.90;19.00;96742.00;;;;5064393;28;20219;-66
2021/07/17 12:02:08;;;;;;;4.70;3.43;;;19.30;99.90;19.00;96763.00;;;;5066549;28;20293;-67
2021/07/17 12:05:00;;;;;;;4.07;3.50;;;19.20;99.90;19.00;96777.00;;;;5064201;28;20208;-67
2021/07/17 12:07:51;;;;;;;5.53;3.40;;;19.20;99.90;19.00;96793.00;;;;5065529;28;20204;-67
2021/07/17 12:10:41;;;;;;;5.60;3.87;;;19.20;99.90;18.80;96776.00;;;;5064574;28;20196;-67
2021/07/17 12:13:30;;;;;;;7.47;4.30;;;19.20;99.90;18.80;96769.00;;;;5065302;28;20979;-67
2021/07/17 12:16:22;;;;;;;3.77;3.30;;;19.10;99.90;18.60;96757.00;;;;5063072;28;20267;-67
2021/07/17 12:19:19;;;;;;;4.33;3.57;;;19.10;99.90;18.40;96756.00;;;;5062290;28;20368;-67
2021/07/17 12:22:08;;;;;;;6.57;3.93;;;18.90;99.90;18.30;96740.00;;;;5067729;28;20219;-65
2021/07/17 12:25:12;;;;;;;4.53;3.70;;;18.80;99.90;18.30;96724.00;;;;5067822;28;20207;-67
2021/07/17 12:28:14;;;;;;;6.83;3.90;;;18.70;99.90;18.20;96712.00;;;;5063152;28;20211;-67
2021/07/17 12:31:07;;;;;;;5.07;3.30;;;18.60;99.90;18.20;96713.00;;;;5063579;28;20208;-67
2021/07/17 12:33:57;;;;;;;7.27;3.57;;;18.60;99.90;18.10;96702.00;;;;5064473;28;20210;-67